Time;durP1;ratioP1;P1;durP2;ratioP2;P2;SDS_P1;SDS_P2;PMS_P1;PMS_P2;Temp;Humidity;BMP_temperature;BMP_pressure;BME280_temperature;BME280_humidity;BME280_pressure;Samples;Min_cycle;Max_cycle;Signal;HPM_P1;HPM_P2
2022/01/10 00:01:51;;;;;;;21.25;3.22;;;4.20;96.40;;;;;;5078111;28;37069;-63
2022/01/10 00:04:18;;;;;;;17.52;3.65;;;4.20;96.70;;;;;;5077017;28;36892;-65
2022/01/10 00:06:46;;;;;;;15.63;3.90;;;4.10;96.40;;;;;;5078096;28;36286;-64
2022/01/10 00:09:13;;;;;;;14.40;3.10;;;4.10;96.50;;;;;;5078263;28;38995;-64
2022/01/10 00:11:42;;;;;;;17.77;3.17;;;4.10;96.40;;;;;;5078756;28;36038;-64
2022/01/10 00:14:09;;;;;;;10.50;2.70;;;4.10;96.30;;;;;;5078012;27;35828;-64
2022/01/10 00:16:36;;;;;;;13.05;3.72;;;4.00;96.30;;;;;;5077689;27;37636;-63
2022/01/10 00:19:04;;;;;;;20.30;3.63;;;4.10;96.30;;;;;;5076594;28;37318;-64
2022/01/10 00:21:32;;;;;;;14.85;3.38;;;4.10;96.30;;;;;;5077362;27;36092;-64
2022/01/10 00:23:59;;;;;;;14.38;3.28;;;4.00;96.30;;;;;;5078085;27;38086;-64
2022/01/10 00:26:26;;;;;;;22.25;3.13;;;4.00;96.30;;;;;;5077857;27;37691;-63
2022/01/10 00:28:55;;;;;;;12.10;2.78;;;4.00;96.30;;;;;;5076052;27;40832;-64
2022/01/10 00:31:22;;;;;;;11.32;2.45;;;4.00;96.50;;;;;;5076857;28;36113;-64
2022/01/10 00:33:50;;;;;;;18.73;3.88;;;3.90;96.40;;;;;;5077687;27;38715;-64
2022/01/10 00:36:17;;;;;;;10.55;2.38;;;3.90;96.50;;;;;;5077056;28;36567;-64
2022/01/10 00:38:44;;;;;;;17.13;3.08;;;3.90;96.50;;;;;;5077655;27;37382;-63
2022/01/10 00:41:12;;;;;;;11.73;2.65;;;4.00;96.40;;;;;;5076980;27;37303;-63
2022/01/10 00:43:45;;;;;;;17.92;3.30;;;4.00;96.40;;;;;;5077647;27;35957;-64
2022/01/10 00:46:15;;;;;;;19.60;4.00;;;4.00;96.40;;;;;;5077678;27;37715;-63
2022/01/10 00:48:42;;;;;;;16.15;4.63;;;3.90;96.30;;;;;;5075512;27;36404;-64
2022/01/10 00:51:09;;;;;;;11.02;2.65;;;4.00;96.30;;;;;;5077105;27;39155;-63
2022/01/10 00:53:37;;;;;;;10.48;2.63;;;3.90;96.30;;;;;;5077958;28;37092;-63
2022/01/10 00:56:08;;;;;;;16.25;3.78;;;4.00;96.30;;;;;;5077977;27;35273;-63
2022/01/10 00:58:36;;;;;;;13.82;2.58;;;3.90;96.20;;;;;;5077495;28;38111;-63
2022/01/10 01:01:03;;;;;;;17.00;2.97;;;3.90;96.20;;;;;;5077485;27;37440;-63
2022/01/10 01:03:32;;;;;;;10.82;2.90;;;3.80;96.20;;;;;;5077022;28;37216;-63
2022/01/10 01:06:00;;;;;;;16.52;3.20;;;3.80;96.30;;;;;;5076061;27;37367;-63
2022/01/10 01:08:31;;;;;;;10.70;2.40;;;3.80;96.30;;;;;;5077247;27;36566;-63
2022/01/10 01:13:51;;;;;;;17.40;3.33;;;3.80;96.10;;;;;;5074958;28;38302;-63
2022/01/10 01:16:31;;;;;;;22.95;4.03;;;3.70;96.10;;;;;;5077722;28;36019;-64
2022/01/10 01:19:51;;;;;;;13.82;3.55;;;3.70;96.10;;;;;;5076816;28;37549;-64
2022/01/10 01:24:53;;;;;;;11.82;2.97;;;3.70;96.20;;;;;;5038373;27;37432;-64
2022/01/10 01:27:20;;;;;;;11.63;2.90;;;3.70;96.10;;;;;;5076315;27;35460;-64
2022/01/10 01:29:48;;;;;;;13.93;2.70;;;3.70;96.10;;;;;;5076857;28;37082;-64
2022/01/10 01:32:15;;;;;;;15.73;2.63;;;3.60;96.10;;;;;;5076498;28;37930;-65
2022/01/10 01:34:44;;;;;;;11.02;2.33;;;3.60;95.60;;;;;;5076745;27;38578;-64
2022/01/10 01:37:12;;;;;;;17.10;3.10;;;3.50;95.30;;;;;;5076236;28;37252;-65
2022/01/10 01:39:39;;;;;;;13.05;2.45;;;3.40;95.40;;;;;;5076974;27;39828;-65
2022/01/10 01:42:29;;;;;;;11.18;2.60;;;3.40;95.40;;;;;;5076456;27;37246;-65
2022/01/10 01:44:54;;;;;;;17.85;2.92;;;3.30;95.40;;;;;;5077169;28;39878;-64
2022/01/10 01:47:21;;;;;;;16.30;3.78;;;3.30;95.50;;;;;;5075964;27;37625;-64
2022/01/10 01:49:50;;;;;;;8.45;2.60;;;3.30;95.60;;;;;;5076901;28;35945;-65
2022/01/10 01:52:18;;;;;;;9.35;2.65;;;3.20;95.70;;;;;;5076339;27;37132;-64
2022/01/10 01:54:45;;;;;;;11.77;3.03;;;3.20;95.80;;;;;;5076929;28;36616;-65
2022/01/10 01:57:12;;;;;;;14.07;3.30;;;3.20;95.90;;;;;;5076606;27;35225;-65
2022/01/10 01:59:40;;;;;;;10.90;2.80;;;3.30;95.90;;;;;;5077001;28;38061;-64
2022/01/10 02:02:07;;;;;;;12.23;2.50;;;3.20;95.70;;;;;;5077359;27;37274;-65
2022/01/10 02:04:34;;;;;;;18.00;3.42;;;3.10;95.10;;;;;;5075837;27;38391;-64
2022/01/10 02:07:04;;;;;;;13.43;3.20;;;3.00;95.10;;;;;;5077140;27;35307;-64
2022/01/10 02:09:32;;;;;;;12.70;3.05;;;3.00;95.30;;;;;;5076423;27;37281;-64
2022/01/10 02:12:00;;;;;;;15.50;4.00;;;3.00;95.50;;;;;;5075423;27;37481;-64
2022/01/10 02:14:27;;;;;;;20.10;4.32;;;2.90;95.80;;;;;;5077033;27;35956;-64
2022/01/10 02:16:56;;;;;;;16.40;3.63;;;3.00;95.70;;;;;;5076189;27;37026;-64
2022/01/10 02:19:24;;;;;;;15.10;3.83;;;3.00;95.60;;;;;;5075685;27;37684;-64
2022/01/10 02:21:54;;;;;;;13.82;3.50;;;2.90;95.70;;;;;;5076257;27;37393;-64
2022/01/10 02:24:23;;;;;;;15.48;3.88;;;2.90;96.00;;;;;;5075497;28;37254;-64
2022/01/10 02:26:51;;;;;;;12.95;4.22;;;2.90;96.10;;;;;;5076159;27;36440;-64
2022/01/10 02:29:18;;;;;;;16.52;3.65;;;2.90;96.20;;;;;;5076664;27;36459;-65
2022/01/10 02:31:46;;;;;;;17.38;3.65;;;2.90;96.30;;;;;;5076092;28;37400;-64
2022/01/10 02:34:18;;;;;;;14.82;4.20;;;2.90;96.30;;;;;;5075754;27;37552;-65
2022/01/10 02:36:45;;;;;;;16.63;3.53;;;2.90;96.10;;;;;;5074272;27;36271;-64
2022/01/10 02:39:19;;;;;;;12.30;3.92;;;2.90;96.10;;;;;;5076776;28;38239;-64
2022/01/10 02:41:46;;;;;;;17.70;4.03;;;2.90;96.30;;;;;;5074875;27;36122;-64
2022/01/10 02:44:17;;;;;;;9.23;3.40;;;2.90;96.40;;;;;;5076607;28;37202;-64
2022/01/10 02:46:46;;;;;;;14.70;3.28;;;3.10;96.50;;;;;;5075344;28;36432;-64
2022/01/10 02:49:16;;;;;;;18.70;3.63;;;2.90;96.20;;;;;;5076483;27;36791;-64
2022/01/10 02:51:43;;;;;;;9.07;2.42;;;2.80;95.50;;;;;;5076306;27;36990;-65
2022/01/10 02:54:14;;;;;;;17.00;3.17;;;2.70;95.30;;;;;;5075710;27;37657;-64
2022/01/10 02:56:49;;;;;;;12.18;2.92;;;2.60;95.30;;;;;;5073692;27;35472;-64
2022/01/10 02:59:16;;;;;;;13.55;3.22;;;2.60;95.30;;;;;;5073656;27;38999;-64
2022/01/10 03:01:44;;;;;;;13.57;3.35;;;2.60;95.40;;;;;;5075649;27;37590;-64
2022/01/10 03:04:12;;;;;;;7.40;2.63;;;2.60;95.40;;;;;;5074351;27;37940;-65
2022/01/10 03:06:40;;;;;;;13.13;3.42;;;2.50;95.40;;;;;;5074360;27;36430;-65
2022/01/10 03:09:07;;;;;;;18.33;3.75;;;2.50;95.40;;;;;;5074935;28;37410;-65
2022/01/10 03:11:36;;;;;;;22.80;4.53;;;2.60;95.60;;;;;;5074151;27;36100;-64
2022/01/10 03:14:05;;;;;;;15.60;4.18;;;2.60;95.80;;;;;;5075768;27;38056;-65
2022/01/10 03:16:33;;;;;;;23.05;5.15;;;2.60;95.90;;;;;;5075932;28;38323;-64
2022/01/10 03:19:00;;;;;;;17.95;4.72;;;2.60;96.20;;;;;;5074142;28;37742;-64
2022/01/10 03:21:27;;;;;;;17.38;4.30;;;2.60;96.30;;;;;;5073452;27;37206;-65
2022/01/10 03:23:55;;;;;;;16.58;4.32;;;2.70;96.50;;;;;;5073261;28;38126;-64
2022/01/10 03:26:24;;;;;;;20.75;4.35;;;2.60;96.50;;;;;;5073927;27;36600;-64
2022/01/10 03:28:51;;;;;;;15.93;5.15;;;2.60;96.70;;;;;;5075117;28;37224;-64
2022/01/10 03:31:20;;;;;;;12.10;4.03;;;2.60;96.80;;;;;;5075279;27;37242;-64
2022/01/10 03:33:47;;;;;;;24.27;6.13;;;2.70;96.90;;;;;;5078766;27;37083;-64
2022/01/10 03:36:14;;;;;;;16.08;4.40;;;2.70;97.00;;;;;;5077192;28;37540;-64
2022/01/10 03:38:42;;;;;;;11.77;3.97;;;2.70;97.00;;;;;;5077615;28;39515;-64
2022/01/10 03:41:10;;;;;;;11.70;3.60;;;2.70;97.00;;;;;;5078924;28;38026;-64
2022/01/10 03:43:37;;;;;;;18.08;3.92;;;2.70;97.00;;;;;;5078225;27;38098;-64
2022/01/10 03:46:06;;;;;;;17.02;4.97;;;2.70;96.80;;;;;;5078797;27;35364;-65
2022/01/10 03:48:34;;;;;;;16.35;4.28;;;2.70;96.80;;;;;;5078485;28;37399;-64
2022/01/10 03:51:02;;;;;;;20.90;4.45;;;2.70;96.80;;;;;;5078093;27;38666;-65
2022/01/10 03:53:29;;;;;;;11.55;4.05;;;2.70;96.70;;;;;;5078412;27;37065;-64
2022/01/10 03:55:57;;;;;;;15.85;5.13;;;2.70;96.80;;;;;;5078451;28;35374;-64
2022/01/10 03:58:24;;;;;;;16.38;4.55;;;2.70;96.80;;;;;;5078071;27;38172;-65
2022/01/10 04:00:52;;;;;;;20.52;4.63;;;2.70;96.70;;;;;;5077477;27;37967;-64
2022/01/10 04:03:19;;;;;;;15.63;3.63;;;2.70;96.60;;;;;;5078922;27;37219;-64
2022/01/10 04:05:48;;;;;;;15.50;4.93;;;2.60;96.50;;;;;;5078092;27;35300;-64
2022/01/10 04:08:15;;;;;;;12.95;4.50;;;2.70;96.50;;;;;;5076134;28;36457;-64
2022/01/10 04:10:43;;;;;;;16.75;4.35;;;2.70;96.40;;;;;;5077438;28;37223;-65
2022/01/10 04:13:10;;;;;;;22.30;4.80;;;2.70;96.40;;;;;;5079013;28;37493;-64
2022/01/10 04:15:38;;;;;;;15.93;4.93;;;2.70;96.20;;;;;;5078221;27;36211;-64
2022/01/10 04:18:07;;;;;;;18.08;4.93;;;2.70;96.30;;;;;;5077789;28;37687;-64
2022/01/10 04:20:35;;;;;;;16.25;5.45;;;2.60;96.10;;;;;;5078495;27;37449;-64
2022/01/10 04:23:03;;;;;;;16.67;5.00;;;2.60;96.00;;;;;;5079351;28;38711;-65
2022/01/10 04:25:31;;;;;;;22.35;5.25;;;2.60;96.00;;;;;;5075560;27;36358;-64
2022/01/10 04:27:58;;;;;;;21.35;5.38;;;2.60;96.00;;;;;;5077559;27;37534;-64
2022/01/10 04:30:25;;;;;;;18.95;5.90;;;2.60;96.00;;;;;;5077917;27;37737;-64
2022/01/10 04:32:53;;;;;;;18.50;5.45;;;2.60;96.10;;;;;;5078846;27;37092;-64
2022/01/10 04:35:20;;;;;;;13.13;5.20;;;2.60;96.20;;;;;;5077604;27;37066;-64
2022/01/10 04:37:48;;;;;;;14.23;6.07;;;2.60;96.30;;;;;;5078380;27;36373;-65
2022/01/10 04:40:17;;;;;;;16.58;5.50;;;2.60;96.30;;;;;;5077804;28;37780;-64
2022/01/10 04:42:44;;;;;;;19.23;6.50;;;2.60;96.20;;;;;;5078195;27;39722;-64
2022/01/10 04:45:13;;;;;;;18.88;6.13;;;2.60;96.20;;;;;;5078384;27;36424;-64
2022/01/10 04:47:40;;;;;;;15.77;5.82;;;2.60;96.20;;;;;;5076879;28;36322;-65
2022/01/10 04:50:33;;;;;;;23.60;5.82;;;2.60;96.20;;;;;;5078393;27;35950;-64
2022/01/10 04:53:01;;;;;;;20.15;5.55;;;2.60;96.10;;;;;;5078440;28;37019;-65
2022/01/10 04:55:29;;;;;;;16.75;5.93;;;2.60;96.10;;;;;;5077353;27;36403;-65
2022/01/10 04:57:57;;;;;;;15.15;6.25;;;2.60;96.30;;;;;;5077200;28;38978;-65
2022/01/10 05:00:25;;;;;;;16.17;6.40;;;2.60;96.10;;;;;;5076835;27;37334;-65
2022/01/10 05:02:54;;;;;;;17.85;6.55;;;2.60;96.00;;;;;;5077072;27;37055;-64
2022/01/10 05:05:22;;;;;;;18.90;6.55;;;2.60;96.10;;;;;;5075200;27;37293;-65
2022/01/10 05:07:49;;;;;;;18.95;6.35;;;2.60;95.90;;;;;;5075224;28;37649;-64
2022/01/10 05:10:17;;;;;;;16.92;6.40;;;2.60;95.80;;;;;;5076545;28;36015;-65
2022/01/10 05:12:46;;;;;;;12.85;6.10;;;2.60;95.80;;;;;;5076499;27;36922;-64
2022/01/10 05:15:13;;;;;;;21.15;6.82;;;2.60;95.80;;;;;;5075281;27;35255;-65
2022/01/10 05:17:41;;;;;;;17.88;6.20;;;2.50;95.70;;;;;;5075030;27;37465;-64
2022/01/10 05:20:09;;;;;;;16.33;6.72;;;2.50;95.70;;;;;;5075474;27;38212;-65
2022/01/10 05:22:37;;;;;;;14.77;6.60;;;2.50;95.80;;;;;;5075287;28;36910;-66
2022/01/10 05:25:05;;;;;;;17.40;6.75;;;2.50;95.80;;;;;;5073113;27;35286;-64
2022/01/10 05:27:32;;;;;;;18.13;7.35;;;2.50;95.90;;;;;;5076830;28;39949;-64
2022/01/10 05:30:01;;;;;;;24.50;8.80;;;2.50;96.00;;;;;;5076633;28;37559;-64
2022/01/10 05:32:28;;;;;;;17.63;7.00;;;2.40;96.10;;;;;;5076917;27;36866;-64
2022/01/10 05:34:55;;;;;;;20.70;6.70;;;2.50;96.30;;;;;;5076007;27;36291;-64
2022/01/10 05:37:23;;;;;;;19.15;7.60;;;2.50;96.20;;;;;;5075045;28;38622;-65
2022/01/10 05:39:50;;;;;;;14.95;7.97;;;2.50;96.10;;;;;;5076054;28;38895;-65
2022/01/10 05:42:19;;;;;;;17.73;7.53;;;2.50;96.10;;;;;;5077013;27;36938;-66
2022/01/10 05:44:46;;;;;;;18.00;7.70;;;2.50;96.10;;;;;;5076225;27;37533;-65
2022/01/10 05:47:15;;;;;;;19.90;8.10;;;2.50;96.00;;;;;;5076428;28;38812;-64
2022/01/10 05:49:47;;;;;;;18.60;7.68;;;2.50;96.00;;;;;;5075527;27;36153;-64
2022/01/10 05:52:15;;;;;;;15.15;7.47;;;2.50;96.00;;;;;;5076083;27;37726;-64
2022/01/10 05:54:42;;;;;;;18.13;8.48;;;2.50;96.10;;;;;;5074258;28;37672;-64
2022/01/10 05:57:10;;;;;;;21.02;8.27;;;2.50;96.00;;;;;;5076305;27;38041;-64
2022/01/10 05:59:37;;;;;;;18.13;8.50;;;2.50;95.90;;;;;;5076790;28;37436;-65
2022/01/10 06:02:05;;;;;;;20.25;8.32;;;2.50;95.80;;;;;;5074139;28;38072;-65
2022/01/10 06:04:34;;;;;;;25.02;10.48;;;2.50;95.80;;;;;;5074932;27;37457;-65
2022/01/10 06:07:01;;;;;;;25.02;9.82;;;2.50;95.90;;;;;;5073646;28;37687;-65
2022/01/10 06:09:29;;;;;;;23.75;9.55;;;2.40;96.10;;;;;;5075091;27;37445;-65
2022/01/10 06:11:56;;;;;;;22.13;9.88;;;2.40;96.10;;;;;;5074914;27;35876;-65
2022/01/10 06:14:24;;;;;;;26.90;10.73;;;2.50;96.10;;;;;;5074838;28;36624;-65
2022/01/10 06:16:51;;;;;;;20.80;10.38;;;2.40;96.20;;;;;;5075470;28;37729;-65
2022/01/10 06:19:18;;;;;;;23.02;9.48;;;2.40;96.40;;;;;;5076318;27;36974;-64
2022/01/10 06:21:47;;;;;;;20.10;10.52;;;2.40;96.50;;;;;;5074775;27;36810;-64
2022/01/10 06:24:14;;;;;;;20.52;10.07;;;2.40;96.50;;;;;;5075387;28;37546;-64
2022/01/10 06:26:42;;;;;;;26.05;10.95;;;2.30;96.40;;;;;;5075363;27;36215;-64
2022/01/10 06:29:09;;;;;;;22.88;11.13;;;2.30;96.50;;;;;;5075085;28;37390;-64
2022/01/10 06:31:36;;;;;;;21.65;10.43;;;2.30;96.70;;;;;;5076230;27;36968;-64
2022/01/10 06:34:04;;;;;;;21.27;10.30;;;2.30;96.80;;;;;;5075928;28;36185;-64
2022/01/10 06:36:31;;;;;;;27.02;11.13;;;2.30;96.80;;;;;;5073800;28;37541;-64
2022/01/10 06:39:00;;;;;;;27.60;11.20;;;2.30;97.00;;;;;;5075660;28;38874;-64
2022/01/10 06:41:27;;;;;;;38.15;13.18;;;2.30;97.20;;;;;;5075976;27;37907;-64
2022/01/10 06:43:54;;;;;;;31.92;13.02;;;2.30;97.10;;;;;;5076434;27;35643;-64
2022/01/10 06:46:22;;;;;;;22.60;11.50;;;2.20;97.10;;;;;;5075574;27;37830;-64
2022/01/10 06:48:49;;;;;;;20.90;11.05;;;2.30;97.20;;;;;;5075475;28;37359;-64
2022/01/10 06:51:16;;;;;;;25.77;12.75;;;2.30;97.20;;;;;;5075804;28;38695;-64
2022/01/10 06:53:44;;;;;;;23.77;11.48;;;2.30;97.30;;;;;;5074229;27;36516;-64
2022/01/10 06:56:12;;;;;;;21.40;10.32;;;2.30;97.30;;;;;;5075879;27;37462;-64
2022/01/10 06:58:40;;;;;;;24.05;10.45;;;2.30;96.80;;;;;;5075090;27;37226;-64
2022/01/10 07:01:07;;;;;;;25.35;10.77;;;2.30;96.70;;;;;;5075540;27;36763;-64
2022/01/10 07:03:35;;;;;;;23.67;10.32;;;2.30;96.60;;;;;;5075489;27;36456;-65
2022/01/10 07:06:02;;;;;;;17.45;9.45;;;2.30;96.50;;;;;;5077088;28;36401;-64
2022/01/10 07:08:29;;;;;;;18.52;9.73;;;2.20;96.40;;;;;;5079924;27;37406;-65
2022/01/10 07:10:57;;;;;;;22.98;10.10;;;2.30;96.40;;;;;;5079300;28;37952;-64
2022/01/10 07:13:25;;;;;;;20.38;11.40;;;2.30;96.30;;;;;;5079960;27;35289;-64
2022/01/10 07:15:53;;;;;;;21.75;11.30;;;2.30;96.30;;;;;;5077719;28;36402;-64
2022/01/10 07:18:20;;;;;;;22.95;10.98;;;2.30;96.30;;;;;;5079095;28;40863;-64
2022/01/10 07:20:47;;;;;;;22.75;11.73;;;2.30;96.40;;;;;;5077726;28;37081;-64
2022/01/10 07:23:15;;;;;;;30.50;10.88;;;2.30;96.40;;;;;;5078849;28;36609;-64
2022/01/10 07:25:42;;;;;;;23.40;12.95;;;2.30;96.40;;;;;;5078671;27;37417;-64
2022/01/10 07:28:09;;;;;;;31.52;13.95;;;2.30;96.40;;;;;;5079370;27;36049;-64
2022/01/10 07:30:38;;;;;;;22.67;10.75;;;2.40;96.40;;;;;;5077425;27;37780;-64
2022/01/10 07:33:05;;;;;;;22.08;12.20;;;2.30;96.40;;;;;;5076867;28;36221;-64
2022/01/10 07:35:33;;;;;;;24.67;11.73;;;2.30;96.40;;;;;;5074854;27;38004;-64
2022/01/10 07:38:00;;;;;;;26.73;12.30;;;2.30;96.50;;;;;;5076794;28;36401;-64
2022/01/10 07:40:28;;;;;;;22.50;11.63;;;2.30;96.80;;;;;;5076682;28;36648;-64
2022/01/10 07:42:55;;;;;;;30.67;13.40;;;2.20;96.80;;;;;;5078255;27;37528;-64
2022/01/10 07:45:23;;;;;;;27.00;11.98;;;2.20;96.90;;;;;;5077958;27;38327;-65
2022/01/10 07:47:52;;;;;;;21.67;10.77;;;2.20;97.00;;;;;;5077772;27;37666;-64
2022/01/10 07:50:20;;;;;;;31.25;12.20;;;2.20;97.00;;;;;;5078300;27;37390;-64
2022/01/10 07:52:47;;;;;;;23.70;12.43;;;2.20;97.10;;;;;;5077919;27;36737;-64
2022/01/10 07:55:15;;;;;;;27.92;12.10;;;2.20;97.30;;;;;;5075398;28;37928;-64
2022/01/10 07:57:42;;;;;;;22.88;11.80;;;2.20;97.30;;;;;;5077083;27;36503;-64
2022/01/10 08:00:10;;;;;;;24.45;13.38;;;2.20;97.30;;;;;;5078411;27;38424;-64
2022/01/10 08:02:38;;;;;;;26.20;12.88;;;2.20;97.40;;;;;;5078392;27;37662;-64
2022/01/10 08:05:09;;;;;;;28.48;12.80;;;2.20;97.40;;;;;;5077057;27;38652;-64
2022/01/10 08:07:36;;;;;;;22.92;12.68;;;2.20;97.40;;;;;;5076884;28;37613;-64
2022/01/10 08:10:05;;;;;;;31.05;12.77;;;2.20;97.40;;;;;;5077918;27;38371;-64
2022/01/10 08:12:32;;;;;;;28.65;11.70;;;2.30;97.40;;;;;;5077992;27;36759;-64
2022/01/10 08:15:00;;;;;;;31.00;12.05;;;2.30;97.40;;;;;;5077339;28;37742;-64
2022/01/10 08:17:27;;;;;;;27.10;12.27;;;2.30;97.30;;;;;;5077074;28;36483;-63
2022/01/10 08:19:54;;;;;;;22.27;12.25;;;2.30;96.60;;;;;;5076516;27;38822;-64
2022/01/10 08:22:23;;;;;;;18.85;12.00;;;2.30;96.20;;;;;;5077086;27;36530;-64
2022/01/10 08:24:52;;;;;;;17.27;10.80;;;2.30;95.90;;;;;;5076738;28;37501;-64
2022/01/10 08:27:19;;;;;;;23.30;10.68;;;2.30;96.00;;;;;;5074189;28;37682;-63
2022/01/10 08:29:47;;;;;;;39.97;11.23;;;2.20;96.00;;;;;;5074706;28;36453;-61
2022/01/10 08:32:15;;;;;;;70.72;11.98;;;2.30;95.90;;;;;;5075509;27;36571;-62
2022/01/10 08:34:43;;;;;;;41.70;11.93;;;2.30;95.90;;;;;;5076579;27;37516;-62
2022/01/10 08:37:11;;;;;;;36.60;11.75;;;2.30;95.90;;;;;;5074994;28;39043;-61
2022/01/10 08:39:40;;;;;;;26.75;12.13;;;2.30;95.70;;;;;;5076137;28;36358;-62
2022/01/10 08:42:07;;;;;;;47.97;12.68;;;2.30;95.60;;;;;;5068918;27;37960;-62
2022/01/10 08:44:34;;;;;;;30.55;12.88;;;2.30;95.50;;;;;;5072295;28;37121;-62
2022/01/10 08:47:02;;;;;;;35.30;11.98;;;2.40;95.60;;;;;;5071690;27;39167;-62
2022/01/10 08:49:29;;;;;;;22.52;11.15;;;2.30;95.80;;;;;;5072862;28;37691;-62
2022/01/10 08:51:57;;;;;;;23.95;11.45;;;2.40;96.10;;;;;;5071578;27;36376;-61
2022/01/10 08:54:25;;;;;;;20.02;12.20;;;2.50;96.30;;;;;;5072559;27;38817;-61
2022/01/10 08:56:54;;;;;;;20.85;11.35;;;2.70;96.40;;;;;;5075639;27;39766;-61
2022/01/10 08:59:22;;;;;;;18.65;9.85;;;2.80;96.50;;;;;;5075895;27;38309;-62
2022/01/10 09:01:50;;;;;;;20.70;11.68;;;2.90;95.80;;;;;;5075967;27;36805;-61
2022/01/10 09:04:17;;;;;;;22.35;11.82;;;2.90;95.50;;;;;;5075917;28;36441;-62
2022/01/10 09:06:45;;;;;;;26.88;12.93;;;3.10;95.70;;;;;;5075034;27;37894;-62
2022/01/10 09:09:14;;;;;;;27.42;13.90;;;3.20;95.70;;;;;;5075534;27;38551;-62
2022/01/10 09:11:42;;;;;;;26.73;13.93;;;3.20;96.00;;;;;;5072561;27;37604;-61
2022/01/10 09:14:12;;;;;;;28.17;14.80;;;3.30;96.10;;;;;;5074190;27;37359;-61
2022/01/10 09:16:40;;;;;;;23.35;13.73;;;3.40;96.20;;;;;;5074089;28;38019;-61
2022/01/10 09:19:07;;;;;;;23.23;12.48;;;3.50;96.30;;;;;;5073813;27;37632;-61
2022/01/10 09:21:36;;;;;;;27.15;15.00;;;3.70;96.20;;;;;;5073544;28;36643;-62
2022/01/10 09:24:04;;;;;;;23.48;14.10;;;3.90;95.90;;;;;;5075102;28;37771;-62
2022/01/10 09:26:31;;;;;;;30.23;14.57;;;4.10;96.00;;;;;;5075526;28;38392;-62
2022/01/10 09:28:59;;;;;;;23.83;14.95;;;4.20;95.90;;;;;;5070865;27;37343;-62
2022/01/10 09:31:28;;;;;;;24.63;13.75;;;4.20;95.80;;;;;;5072126;28;37790;-62
2022/01/10 09:33:56;;;;;;;23.52;12.98;;;4.30;95.80;;;;;;5075000;27;37913;-62
2022/01/10 09:36:26;;;;;;;24.33;15.18;;;4.40;95.80;;;;;;5074365;27;37765;-62
2022/01/10 09:38:55;;;;;;;28.30;14.55;;;4.60;96.00;;;;;;5075179;27;36354;-62
2022/01/10 09:41:22;;;;;;;29.83;14.63;;;4.80;95.70;;;;;;5074458;27;35705;-62
2022/01/10 09:43:53;;;;;;;25.58;14.15;;;5.00;95.50;;;;;;5073553;28;37648;-62
2022/01/10 09:46:21;;;;;;;23.55;13.43;;;5.40;95.00;;;;;;5075870;28;37936;-62
2022/01/10 09:48:49;;;;;;;23.77;13.07;;;5.60;94.70;;;;;;5072574;28;37515;-62
2022/01/10 09:51:17;;;;;;;25.35;12.65;;;5.70;93.90;;;;;;5071776;28;37183;-62
2022/01/10 09:53:44;;;;;;;21.27;12.35;;;5.70;93.70;;;;;;5073217;28;36529;-61
2022/01/10 09:56:11;;;;;;;28.25;12.75;;;6.00;93.40;;;;;;5071719;28;38774;-61
2022/01/10 09:58:39;;;;;;;28.17;13.15;;;6.30;92.60;;;;;;5072205;27;37289;-61
2022/01/10 10:01:06;;;;;;;27.35;13.85;;;6.70;92.70;;;;;;5069904;28;36416;-61
2022/01/10 10:03:33;;;;;;;22.40;13.30;;;7.00;92.20;;;;;;5068503;27;37070;-61
2022/01/10 10:06:02;;;;;;;24.88;14.20;;;7.30;91.60;;;;;;5070581;28;36428;-61
2022/01/10 10:08:29;;;;;;;30.90;14.55;;;7.50;91.40;;;;;;5071725;27;36332;-61
2022/01/10 10:10:57;;;;;;;24.15;14.18;;;7.70;91.10;;;;;;5070850;28;36194;-61
2022/01/10 10:13:24;;;;;;;25.58;14.02;;;7.80;90.90;;;;;;5071268;27;38981;-61
2022/01/10 10:15:52;;;;;;;22.95;13.68;;;7.80;90.90;;;;;;5072349;28;36414;-61
2022/01/10 10:18:20;;;;;;;27.45;12.68;;;7.80;90.90;;;;;;5067830;28;38575;-61
2022/01/10 10:20:48;;;;;;;23.05;12.68;;;7.80;91.10;;;;;;5072895;27;36725;-61
2022/01/10 10:23:18;;;;;;;19.85;12.27;;;7.70;91.00;;;;;;5071298;28;38044;-61
2022/01/10 10:25:50;;;;;;;21.98;13.32;;;7.70;90.70;;;;;;5073040;27;38612;-61
2022/01/10 10:28:17;;;;;;;21.85;12.95;;;7.80;90.70;;;;;;5072579;27;37677;-61
2022/01/10 10:30:45;;;;;;;23.88;12.77;;;7.80;90.90;;;;;;5074830;27;36909;-61
2022/01/10 10:33:15;;;;;;;27.25;13.35;;;7.80;90.90;;;;;;5071988;27;38192;-61
2022/01/10 10:35:43;;;;;;;24.90;12.93;;;7.90;90.80;;;;;;5073175;28;36620;-61
2022/01/10 10:38:11;;;;;;;22.55;12.52;;;7.90;90.80;;;;;;5074516;28;37730;-61
2022/01/10 10:40:45;;;;;;;23.20;13.30;;;7.90;91.10;;;;;;5074009;28;36786;-61
2022/01/10 10:43:13;;;;;;;23.83;13.93;;;7.90;91.20;;;;;;5073725;28;38045;-61
2022/01/10 10:45:40;;;;;;;21.85;12.38;;;7.80;90.90;;;;;;5074612;28;38489;-61
2022/01/10 10:48:09;;;;;;;20.08;12.00;;;7.80;90.90;;;;;;5073421;28;39729;-61
2022/01/10 10:50:42;;;;;;;26.13;13.63;;;7.80;90.90;;;;;;5074813;27;34561;-61
2022/01/10 10:53:13;;;;;;;21.92;12.15;;;7.80;90.50;;;;;;5073673;28;38200;-61
2022/01/10 10:55:41;;;;;;;24.33;13.93;;;7.70;90.60;;;;;;5075094;28;37528;-61
2022/01/10 10:58:11;;;;;;;22.45;12.98;;;7.60;90.80;;;;;;5073586;27;36378;-61
2022/01/10 11:00:39;;;;;;;27.98;13.15;;;7.50;90.90;;;;;;5074137;27;36884;-61
2022/01/10 11:03:09;;;;;;;25.25;13.15;;;7.40;91.10;;;;;;5073594;27;37320;-61
2022/01/10 11:05:36;;;;;;;25.70;13.10;;;7.30;91.40;;;;;;5073906;27;37748;-61
2022/01/10 11:08:04;;;;;;;30.25;14.68;;;7.20;91.50;;;;;;5072526;27;37443;-61
2022/01/10 11:10:32;;;;;;;21.90;12.50;;;7.10;91.70;;;;;;5073648;28;40142;-61
2022/01/10 11:13:01;;;;;;;25.10;13.85;;;7.00;91.90;;;;;;5073635;27;36341;-61
2022/01/10 11:15:31;;;;;;;20.67;12.98;;;6.90;92.20;;;;;;5073647;27;37620;-61
2022/01/10 11:18:01;;;;;;;28.10;13.45;;;6.90;92.60;;;;;;5073642;27;38933;-61
2022/01/10 11:20:29;;;;;;;32.20;14.10;;;6.90;92.80;;;;;;5073033;28;37153;-61
2022/01/10 11:23:01;;;;;;;30.67;13.77;;;6.80;93.00;;;;;;5072880;27;38352;-61
2022/01/10 11:25:30;;;;;;;24.77;13.50;;;6.80;93.10;;;;;;5071487;28;38791;-61
2022/01/10 11:28:00;;;;;;;20.85;12.80;;;6.70;93.20;;;;;;5070630;27;38158;-61
2022/01/10 11:30:34;;;;;;;27.52;14.95;;;6.70;93.40;;;;;;5072887;28;35617;-61
2022/01/10 11:33:07;;;;;;;23.88;12.80;;;6.90;93.30;;;;;;5070537;28;37301;-61
2022/01/10 11:35:37;;;;;;;25.35;14.70;;;6.90;93.60;;;;;;5071465;28;36519;-61
2022/01/10 11:38:29;;;;;;;27.52;13.63;;;6.80;93.60;;;;;;5071128;28;38647;-61
2022/01/10 11:41:00;;;;;;;26.40;13.13;;;6.80;93.60;;;;;;5069242;27;36744;-61
2022/01/10 11:43:34;;;;;;;21.15;12.50;;;7.00;93.50;;;;;;5068606;28;37738;-61
2022/01/10 11:46:12;;;;;;;29.15;13.73;;;7.20;93.10;;;;;;5069968;28;37592;-61
2022/01/10 11:48:51;;;;;;;21.33;12.43;;;7.60;92.60;;;;;;5070034;28;37539;-61
2022/01/10 11:51:21;;;;;;;29.02;12.77;;;7.90;92.30;;;;;;5069293;28;36753;-61
2022/01/10 11:53:51;;;;;;;26.42;12.90;;;8.30;91.20;;;;;;5070212;27;39021;-61
2022/01/10 11:56:28;;;;;;;21.02;12.23;;;8.60;90.70;;;;;;5073301;28;39016;-63
2022/01/10 11:59:22;;;;;;;28.15;14.07;;;8.70;90.30;;;;;;5075498;27;36565;-63
2022/01/10 12:01:56;;;;;;;22.77;12.63;;;8.70;90.00;;;;;;5075911;28;36735;-63
2022/01/10 12:04:23;;;;;;;26.15;13.75;;;8.80;90.30;;;;;;5076504;28;36952;-63
2022/01/10 12:06:53;;;;;;;26.75;13.60;;;8.80;90.30;;;;;;5073289;27;37905;-63
2022/01/10 12:09:21;;;;;;;37.50;14.10;;;8.80;90.40;;;;;;5074448;28;37989;-63
2022/01/10 12:11:51;;;;;;;26.60;12.85;;;8.70;90.60;;;;;;5071838;27;37633;-63
2022/01/10 12:14:20;;;;;;;23.52;12.85;;;8.50;90.90;;;;;;5073538;27;38276;-63
2022/01/10 12:16:48;;;;;;;26.42;12.40;;;8.40;91.20;;;;;;5071084;27;37899;-63
2022/01/10 12:19:18;;;;;;;24.90;13.23;;;8.30;91.50;;;;;;5072012;27;36342;-63
2022/01/10 12:21:46;;;;;;;21.27;12.25;;;8.20;91.70;;;;;;5072922;27;36813;-63
2022/01/10 12:24:15;;;;;;;23.48;11.90;;;8.20;92.00;;;;;;5073141;28;38680;-63
2022/01/10 12:26:43;;;;;;;25.63;12.35;;;8.20;92.10;;;;;;5076028;27;38949;-63
2022/01/10 12:29:12;;;;;;;23.13;12.38;;;8.20;92.10;;;;;;5073404;28;37791;-63
2022/01/10 12:31:41;;;;;;;23.30;12.02;;;8.20;92.00;;;;;;5075625;27;36280;-63
2022/01/10 12:34:10;;;;;;;22.02;12.35;;;8.20;92.00;;;;;;5070149;27;41625;-63
2022/01/10 12:36:41;;;;;;;19.15;11.85;;;8.20;92.00;;;;;;5073012;27;37948;-63
2022/01/10 12:39:12;;;;;;;21.95;11.73;;;8.10;92.00;;;;;;5072865;28;37654;-64
2022/01/10 12:41:40;;;;;;;24.52;11.63;;;8.40;92.00;;;;;;5073420;28;36816;-63
2022/01/10 12:44:07;;;;;;;20.67;12.30;;;8.10;91.90;;;;;;5073482;27;37728;-63
2022/01/10 12:46:36;;;;;;;25.13;12.13;;;8.10;91.90;;;;;;5076245;27;36506;-63
2022/01/10 12:49:06;;;;;;;21.50;11.23;;;8.00;91.90;;;;;;5075045;27;36347;-63
2022/01/10 12:51:36;;;;;;;35.58;16.70;;;8.10;92.00;;;;;;5076331;27;37806;-63
2022/01/10 12:54:06;;;;;;;26.08;12.90;;;8.00;92.10;;;;;;5075833;28;37514;-63